Time;durP1;ratioP1;P1;durP2;ratioP2;P2;SDS_P1;SDS_P2;PMS_P1;PMS_P2;Temp;Humidity;BMP_temperature;BMP_pressure;BME280_temperature;BME280_humidity;BME280_pressure;Samples;Min_cycle;Max_cycle;Signal;HPM_P1;HPM_P2
2021/01/28 00:00:21;;;;;;;36.60;19.07;;;0.90;91.50;;;;;;4984748;28;20280;-81
2021/01/28 00:03:12;;;;;;;28.57;17.00;;;0.90;91.40;;;;;;4970233;28;20206;-79
2021/01/28 00:05:46;;;;;;;30.00;17.07;;;0.90;91.30;;;;;;4978640;28;20292;-79
2021/01/28 00:08:14;;;;;;;29.57;17.87;;;0.90;91.30;;;;;;4979974;28;20204;-78
2021/01/28 00:10:43;;;;;;;28.83;16.60;;;0.90;91.20;;;;;;4973081;28;20206;-79
2021/01/28 00:13:12;;;;;;;28.73;16.27;;;0.90;91.40;;;;;;4959900;28;20219;-81
2021/01/28 00:15:40;;;;;;;29.50;16.57;;;0.90;91.20;;;;;;4964441;28;20223;-78
2021/01/28 00:18:10;;;;;;;28.40;16.23;;;1.00;91.10;;;;;;4976400;28;20697;-81
2021/01/28 00:20:40;;;;;;;27.70;16.27;;;1.00;90.90;;;;;;4989079;28;20192;-79
2021/01/28 00:23:08;;;;;;;29.20;15.33;;;1.00;90.80;;;;;;4982081;28;20247;-81
2021/01/28 00:25:38;;;;;;;24.20;14.03;;;1.10;90.70;;;;;;4994493;28;20352;-79
2021/01/28 00:28:08;;;;;;;24.40;13.37;;;1.00;90.40;;;;;;4973839;28;20192;-81
2021/01/28 00:30:38;;;;;;;22.50;13.73;;;1.10;90.20;;;;;;4972957;28;20196;-81
2021/01/28 00:33:07;;;;;;;21.10;13.57;;;1.10;90.20;;;;;;4971891;28;20557;-80
2021/01/28 00:35:38;;;;;;;22.90;13.43;;;1.10;90.20;;;;;;4968635;28;20210;-80
2021/01/28 00:38:09;;;;;;;21.23;12.27;;;1.10;90.10;;;;;;4973758;28;20219;-80
2021/01/28 00:40:38;;;;;;;20.93;12.93;;;1.10;89.90;;;;;;4971864;28;20258;-81
2021/01/28 00:43:05;;;;;;;23.27;13.27;;;1.10;89.80;;;;;;4963685;28;20479;-78
2021/01/28 00:45:33;;;;;;;25.53;14.60;;;1.10;89.90;;;;;;4977430;28;20228;-81
2021/01/28 00:48:02;;;;;;;24.53;14.43;;;1.10;90.00;;;;;;4968735;28;20672;-78
2021/01/28 00:50:33;;;;;;;24.20;14.77;;;1.10;90.20;;;;;;4979533;28;20745;-81
2021/01/28 00:53:02;;;;;;;30.47;15.87;;;1.10;90.30;;;;;;4972143;28;20267;-80
2021/01/28 00:55:30;;;;;;;25.43;14.97;;;1.00;90.40;;;;;;4969256;28;20765;-81
2021/01/28 00:57:58;;;;;;;25.10;14.90;;;1.00;90.40;;;;;;4960128;28;20208;-80
2021/01/28 01:00:29;;;;;;;28.93;16.83;;;1.00;90.50;;;;;;4970778;28;20361;-80
2021/01/28 01:02:57;;;;;;;28.07;16.93;;;1.00;90.70;;;;;;4961314;28;20204;-81
2021/01/28 01:05:26;;;;;;;27.27;16.37;;;1.00;90.80;;;;;;4974976;28;20311;-80
2021/01/28 01:07:55;;;;;;;28.37;17.30;;;1.00;90.70;;;;;;4968947;28;20192;-80
2021/01/28 01:10:35;;;;;;;30.53;18.00;;;1.00;90.80;;;;;;4981734;28;20200;-80
2021/01/28 01:13:03;;;;;;;28.33;17.70;;;1.00;90.90;;;;;;4969136;28;20569;-80
2021/01/28 01:15:31;;;;;;;28.40;16.70;;;1.00;91.00;;;;;;4977203;28;20436;-80
2021/01/28 01:17:58;;;;;;;29.63;17.67;;;1.00;91.00;;;;;;4984389;28;20580;-81
2021/01/28 01:20:27;;;;;;;27.60;17.33;;;1.00;91.10;;;;;;4972246;28;20645;-81
2021/01/28 01:22:54;;;;;;;29.03;17.87;;;1.00;91.10;;;;;;4968498;28;20200;-80
2021/01/28 01:25:22;;;;;;;34.33;19.53;;;0.90;91.00;;;;;;4958120;28;20237;-81
2021/01/28 01:27:51;;;;;;;30.23;19.27;;;0.90;91.00;;;;;;4966504;28;20645;-82
2021/01/28 01:30:22;;;;;;;28.97;19.03;;;0.90;91.00;;;;;;4959956;28;20207;-79
2021/01/28 01:32:51;;;;;;;30.30;18.77;;;0.90;91.10;;;;;;4967463;28;20692;-80
2021/01/28 01:35:22;;;;;;;29.73;19.37;;;0.90;91.20;;;;;;4967204;28;20253;-79
2021/01/28 01:37:50;;;;;;;33.67;19.80;;;0.80;91.20;;;;;;4970902;28;20196;-82
2021/01/28 01:40:23;;;;;;;30.57;18.10;;;0.80;91.30;;;;;;4975230;28;20314;-80
2021/01/28 01:42:52;;;;;;;30.77;18.37;;;0.80;91.30;;;;;;4973532;28;20200;-81
2021/01/28 01:45:28;;;;;;;32.20;18.97;;;0.80;91.30;;;;;;4967477;28;20234;-81
2021/01/28 01:48:03;;;;;;;29.13;18.70;;;0.80;91.40;;;;;;4983954;28;20184;-80
2021/01/28 01:50:49;;;;;;;28.40;18.77;;;0.80;91.40;;;;;;4986341;28;20219;-80
2021/01/28 01:53:21;;;;;;;35.83;18.87;;;0.80;91.40;;;;;;5001120;28;20200;-80
2021/01/28 01:55:53;;;;;;;29.70;18.60;;;0.80;91.50;;;;;;4993046;28;20199;-80
2021/01/28 01:58:45;;;;;;;33.53;20.90;;;0.80;91.50;;;;;;4987370;28;20204;-80
2021/01/28 02:01:13;;;;;;;33.53;20.03;;;0.80;91.40;;;;;;4978671;28;20303;-79
2021/01/28 02:03:43;;;;;;;32.47;18.20;;;0.80;91.30;;;;;;4978370;28;20331;-79
2021/01/28 02:06:21;;;;;;;32.03;20.63;;;0.80;91.20;;;;;;4961749;28;20509;-79
2021/01/28 02:08:51;;;;;;;31.67;19.33;;;0.80;91.20;;;;;;4974516;28;20215;-80
2021/01/28 02:11:19;;;;;;;31.13;18.53;;;0.80;91.30;;;;;;4967728;28;20204;-78
2021/01/28 02:13:51;;;;;;;35.77;18.67;;;0.80;91.30;;;;;;4988910;28;20302;-80
2021/01/28 02:16:21;;;;;;;31.73;19.10;;;0.80;91.20;;;;;;4982500;28;20254;-81
2021/01/28 02:18:49;;;;;;;28.97;18.10;;;0.80;91.10;;;;;;4976855;28;20215;-80
2021/01/28 02:21:22;;;;;;;27.40;18.57;;;0.80;91.20;;;;;;4988794;28;20215;-80
2021/01/28 02:24:07;;;;;;;28.87;17.83;;;0.80;91.20;;;;;;4965560;28;20702;-80
2021/01/28 02:26:35;;;;;;;27.90;18.40;;;0.80;91.30;;;;;;4987086;28;20204;-81
2021/01/28 02:29:05;;;;;;;29.90;18.93;;;0.70;91.30;;;;;;4985671;28;20252;-79
2021/01/28 02:31:35;;;;;;;32.63;19.53;;;0.70;91.30;;;;;;4963858;28;20216;-80
2021/01/28 02:34:06;;;;;;;28.83;18.53;;;0.70;91.30;;;;;;4970692;28;20929;-81
2021/01/28 02:36:39;;;;;;;29.20;18.47;;;0.70;91.50;;;;;;4973214;28;20200;-80
2021/01/28 02:39:07;;;;;;;31.03;17.53;;;0.70;91.50;;;;;;4976961;28;20200;-81
2021/01/28 02:41:39;;;;;;;28.20;17.67;;;0.70;91.50;;;;;;4976381;28;20261;-80
2021/01/28 02:44:06;;;;;;;32.17;18.40;;;0.80;91.40;;;;;;4965503;28;20230;-79
2021/01/28 02:46:34;;;;;;;31.37;17.63;;;0.90;91.50;;;;;;4976445;28;20594;-79
2021/01/28 02:49:02;;;;;;;31.03;18.47;;;0.80;91.50;;;;;;4974296;28;20255;-79
2021/01/28 02:51:31;;;;;;;30.27;17.93;;;0.90;91.40;;;;;;4985483;28;20397;-79
2021/01/28 02:54:03;;;;;;;29.87;18.13;;;0.90;91.20;;;;;;4984158;28;20200;-79
2021/01/28 02:56:31;;;;;;;29.53;18.77;;;0.90;91.10;;;;;;4975184;28;20196;-79
2021/01/28 02:59:00;;;;;;;31.50;18.50;;;0.90;91.10;;;;;;4970257;28;20226;-79
2021/01/28 03:01:28;;;;;;;34.47;19.47;;;0.90;91.00;;;;;;4980197;28;20298;-81
2021/01/28 03:03:56;;;;;;;28.90;17.63;;;1.00;91.10;;;;;;4974963;28;20204;-80
2021/01/28 03:06:23;;;;;;;29.70;19.20;;;0.90;91.10;;;;;;4987948;28;20203;-79
2021/01/28 03:08:51;;;;;;;29.47;18.30;;;0.90;91.00;;;;;;4981573;28;20699;-80
2021/01/28 03:11:19;;;;;;;31.00;18.27;;;1.00;90.90;;;;;;4984056;28;20211;-80
2021/01/28 03:13:46;;;;;;;30.07;19.20;;;1.00;90.80;;;;;;4971098;28;20247;-79
2021/01/28 03:16:15;;;;;;;29.50;17.77;;;1.00;90.70;;;;;;4993845;28;20208;-79
2021/01/28 03:18:42;;;;;;;31.60;18.93;;;1.00;90.60;;;;;;4997031;28;20204;-79
2021/01/28 03:21:11;;;;;;;31.63;18.83;;;1.00;90.50;;;;;;4987608;28;20207;-81
2021/01/28 03:23:38;;;;;;;28.33;19.33;;;1.00;90.70;;;;;;4974247;28;20205;-80
2021/01/28 03:26:06;;;;;;;34.23;20.23;;;0.90;90.80;;;;;;4977647;28;20698;-80
2021/01/28 03:28:34;;;;;;;31.60;20.67;;;0.90;91.00;;;;;;4978751;28;20287;-81
2021/01/28 03:31:02;;;;;;;30.67;19.57;;;0.90;91.00;;;;;;4973397;28;20678;-81
2021/01/28 03:33:30;;;;;;;33.17;19.83;;;0.90;91.10;;;;;;4988655;28;20278;-80
2021/01/28 03:35:59;;;;;;;33.13;19.57;;;0.80;91.10;;;;;;4995487;28;20488;-79
2021/01/28 03:38:31;;;;;;;32.50;19.50;;;0.80;91.20;;;;;;5005303;28;20275;-81
2021/01/28 03:40:58;;;;;;;35.80;19.63;;;0.80;91.10;;;;;;4973165;28;20208;-78
2021/01/28 03:43:26;;;;;;;32.87;20.10;;;0.80;91.10;;;;;;4996744;28;20196;-80
2021/01/28 03:45:53;;;;;;;34.80;20.30;;;0.90;91.00;;;;;;5004008;28;20219;-81
2021/01/28 03:48:22;;;;;;;33.23;20.30;;;0.90;90.80;;;;;;5002750;28;20204;-80
2021/01/28 03:50:51;;;;;;;33.53;21.03;;;0.90;90.70;;;;;;4998985;28;20380;-80
2021/01/28 03:53:19;;;;;;;30.90;20.40;;;0.90;90.80;;;;;;4975843;28;20200;-80
2021/01/28 03:55:46;;;;;;;34.50;20.67;;;0.80;90.70;;;;;;4980090;28;20673;-81
2021/01/28 03:58:13;;;;;;;32.47;20.00;;;0.90;90.80;;;;;;4979968;28;20196;-82
2021/01/28 04:00:42;;;;;;;37.30;21.10;;;0.90;90.70;;;;;;5006411;28;20200;-81
2021/01/28 04:03:10;;;;;;;33.83;20.17;;;0.90;90.70;;;;;;5006502;28;20869;-82
2021/01/28 04:05:38;;;;;;;35.40;20.30;;;0.90;90.70;;;;;;5005462;28;20621;-80
2021/01/28 04:08:08;;;;;;;30.03;18.80;;;0.90;90.70;;;;;;5000664;28;20184;-79
2021/01/28 04:10:37;;;;;;;29.20;17.33;;;0.90;90.60;;;;;;5003452;28;20490;-80
2021/01/28 04:13:06;;;;;;;28.40;17.07;;;0.90;90.40;;;;;;4997391;28;20286;-80
2021/01/28 04:15:35;;;;;;;30.87;18.00;;;0.90;90.30;;;;;;4999329;28;20320;-81
2021/01/28 04:18:04;;;;;;;29.70;16.60;;;0.90;90.30;;;;;;5004010;28;20212;-80
2021/01/28 04:20:34;;;;;;;30.37;17.03;;;0.90;90.30;;;;;;5002800;28;20343;-81
2021/01/28 04:23:02;;;;;;;26.20;17.37;;;0.80;90.30;;;;;;4997023;28;20289;-80
2021/01/28 04:25:30;;;;;;;26.57;17.20;;;0.80;90.30;;;;;;4998117;28;20239;-81
2021/01/28 04:27:58;;;;;;;24.50;16.23;;;0.80;90.30;;;;;;4995767;28;20192;-81
2021/01/28 04:30:29;;;;;;;29.50;16.53;;;0.80;90.30;;;;;;4991958;28;20220;-81
2021/01/28 04:32:56;;;;;;;25.57;17.10;;;0.70;90.30;;;;;;4989311;28;20188;-81
2021/01/28 04:35:24;;;;;;;28.40;17.00;;;0.70;90.40;;;;;;4979029;28;20265;-80
2021/01/28 04:37:53;;;;;;;24.97;15.80;;;0.70;90.40;;;;;;4983141;28;20192;-80
2021/01/28 04:40:29;;;;;;;31.43;16.97;;;0.70;90.20;;;;;;4975949;28;20233;-80
2021/01/28 04:43:00;;;;;;;23.20;15.07;;;0.70;90.00;;;;;;4979660;28;20199;-81
2021/01/28 04:45:31;;;;;;;23.67;14.73;;;0.70;89.90;;;;;;4988159;28;20780;-79
2021/01/28 04:48:02;;;;;;;23.73;14.13;;;0.70;89.40;;;;;;4991817;28;20203;-80
2021/01/28 04:50:35;;;;;;;24.03;14.53;;;0.70;88.90;;;;;;4972958;28;20262;-81
2021/01/28 04:53:07;;;;;;;21.80;14.23;;;0.80;88.60;;;;;;4998658;28;20184;-79
2021/01/28 04:55:39;;;;;;;20.83;12.97;;;0.50;88.20;;;;;;4988607;28;20339;-81
2021/01/28 04:58:09;;;;;;;22.00;13.03;;;0.60;88.30;;;;;;4980170;28;20195;-81
2021/01/28 05:00:38;;;;;;;22.00;12.93;;;0.50;88.20;;;;;;4975700;28;20473;-78
2021/01/28 05:03:15;;;;;;;21.60;13.07;;;0.40;88.20;;;;;;4981332;28;20317;-80
2021/01/28 05:05:44;;;;;;;20.63;11.97;;;0.40;88.20;;;;;;4981691;28;20223;-79
2021/01/28 05:08:11;;;;;;;20.83;12.03;;;0.40;88.10;;;;;;4980559;28;20475;-80
2021/01/28 05:10:44;;;;;;;17.70;11.40;;;0.30;88.00;;;;;;4975954;28;20200;-81
2021/01/28 05:13:24;;;;;;;17.50;11.90;;;0.30;88.10;;;;;;4983543;28;20458;-79
2021/01/28 05:15:52;;;;;;;20.60;11.97;;;0.30;87.60;;;;;;4975353;28;20192;-81
2021/01/28 05:18:29;;;;;;;16.60;10.93;;;0.30;87.50;;;;;;4976304;28;20605;-80
2021/01/28 05:21:10;;;;;;;16.77;10.43;;;0.30;87.50;;;;;;4975693;28;20644;-80
2021/01/28 05:23:40;;;;;;;15.30;10.23;;;0.30;87.20;;;;;;4982150;28;20246;-81
2021/01/28 05:26:30;;;;;;;17.50;10.40;;;0.30;86.60;;;;;;4977356;28;20330;-79
2021/01/28 05:29:15;;;;;;;16.37;10.97;;;0.30;86.60;;;;;;4978872;28;20206;-80
2021/01/28 05:31:44;;;;;;;16.13;10.03;;;0.30;86.60;;;;;;4975305;28;20203;-79
2021/01/28 05:34:21;;;;;;;18.50;10.60;;;0.20;86.40;;;;;;4983617;28;20204;-78
2021/01/28 05:36:59;;;;;;;18.17;11.13;;;0.10;86.50;;;;;;4971692;28;20202;-79
2021/01/28 05:39:33;;;;;;;18.67;11.03;;;0.00;86.50;;;;;;4978073;28;20204;-79
2021/01/28 05:42:14;;;;;;;15.60;9.97;;;-0.10;86.60;;;;;;4982854;28;20211;-79
2021/01/28 05:44:42;;;;;;;17.47;10.53;;;-0.20;86.90;;;;;;4975356;28;20771;-81
2021/01/28 05:47:14;;;;;;;14.27;9.20;;;-0.30;86.80;;;;;;4981120;28;20205;-80
2021/01/28 05:49:43;;;;;;;15.07;9.13;;;-0.40;87.00;;;;;;4971865;28;20531;-81
2021/01/28 05:52:15;;;;;;;12.57;9.10;;;-0.40;87.30;;;;;;4981609;28;20303;-80
2021/01/28 05:54:43;;;;;;;12.13;8.20;;;-0.40;87.20;;;;;;4978072;28;20308;-81
2021/01/28 05:57:18;;;;;;;11.77;8.30;;;-0.50;87.20;;;;;;4976850;28;20203;-81
2021/01/28 05:59:53;;;;;;;14.20;9.63;;;-0.50;87.20;;;;;;4972738;28;20763;-80
2021/01/28 06:02:41;;;;;;;14.97;9.00;;;-0.40;87.10;;;;;;4985122;28;20207;-80
2021/01/28 06:05:21;;;;;;;13.80;9.10;;;-0.40;87.20;;;;;;4983037;28;20371;-80
2021/01/28 06:08:02;;;;;;;10.57;8.40;;;-0.30;87.00;;;;;;4970517;28;20318;-81
2021/01/28 06:10:51;;;;;;;12.57;8.53;;;-0.20;87.00;;;;;;4986443;28;20547;-80
2021/01/28 06:13:45;;;;;;;11.10;8.73;;;-0.20;86.90;;;;;;4987365;28;20200;-81
2021/01/28 06:16:22;;;;;;;14.00;8.53;;;-0.10;86.90;;;;;;4964946;28;20216;-80
2021/01/28 06:19:19;;;;;;;12.90;7.67;;;-0.10;86.80;;;;;;4971894;28;20371;-80
2021/01/28 06:22:01;;;;;;;10.33;7.37;;;-0.10;86.60;;;;;;4968637;28;20204;-80
2021/01/28 06:24:49;;;;;;;10.60;7.60;;;0.00;85.50;;;;;;4969668;28;20200;-78
2021/01/28 06:27:46;;;;;;;14.67;7.43;;;0.10;85.10;;;;;;4968356;28;20198;-80
2021/01/28 06:30:22;;;;;;;9.40;6.50;;;0.10;84.90;;;;;;4973632;28;20855;-80
2021/01/28 06:33:03;;;;;;;8.27;7.13;;;0.10;84.40;;;;;;4965448;28;20211;-81
2021/01/28 06:35:48;;;;;;;10.13;7.17;;;0.10;84.10;;;;;;4967568;28;20198;-81
2021/01/28 06:38:35;;;;;;;11.03;7.20;;;0.00;84.00;;;;;;4963176;28;20207;-80
2021/01/28 06:41:08;;;;;;;11.60;7.20;;;-0.10;84.10;;;;;;4969587;28;20415;-80
2021/01/28 06:43:45;;;;;;;7.63;6.83;;;-0.10;84.20;;;;;;4976291;28;20489;-79
2021/01/28 06:46:33;;;;;;;11.43;7.77;;;-0.10;83.90;;;;;;4964996;28;20230;-80
2021/01/28 06:49:16;;;;;;;11.80;7.60;;;-0.20;84.30;;;;;;4963553;28;20595;-79
2021/01/28 06:51:55;;;;;;;11.00;7.90;;;-0.30;84.30;;;;;;4971610;28;20197;-78
2021/01/28 06:54:29;;;;;;;14.50;8.40;;;-0.40;84.70;;;;;;4960877;28;20222;-80
2021/01/28 06:57:03;;;;;;;9.93;7.80;;;-0.50;85.10;;;;;;4941339;28;20204;-81
2021/01/28 06:59:47;;;;;;;15.87;8.47;;;-0.60;85.20;;;;;;4981578;28;20201;-80
2021/01/28 07:02:26;;;;;;;13.27;8.03;;;-0.70;85.30;;;;;;4989071;28;20186;-79
2021/01/28 07:05:09;;;;;;;12.87;7.57;;;-0.70;85.60;;;;;;4966171;28;20681;-80
2021/01/28 07:07:47;;;;;;;11.33;8.13;;;-0.60;86.20;;;;;;4949859;28;20579;-81
2021/01/28 07:10:23;;;;;;;13.07;9.27;;;-0.70;86.40;;;;;;4973693;28;21066;-79
2021/01/28 07:12:53;;;;;;;12.70;8.57;;;-0.70;86.30;;;;;;4958871;28;20220;-79
2021/01/28 07:15:25;;;;;;;15.40;8.83;;;-0.70;86.20;;;;;;4978931;28;20946;-82
2021/01/28 07:17:58;;;;;;;12.70;8.47;;;-0.60;86.50;;;;;;4951157;28;20953;-79
2021/01/28 07:20:32;;;;;;;11.57;9.00;;;-0.50;86.30;;;;;;4964588;28;20207;-82
2021/01/28 07:23:24;;;;;;;13.83;9.30;;;-0.40;86.00;;;;;;4967680;28;20211;-82
2021/01/28 07:26:05;;;;;;;12.70;8.30;;;-0.30;85.40;;;;;;4972244;28;20219;-83
2021/01/28 07:28:36;;;;;;;13.10;8.40;;;-0.10;85.40;;;;;;4972068;28;20203;-81
2021/01/28 07:31:43;;;;;;;14.07;8.03;;;0.00;84.80;;;;;;4956120;28;20514;-83
2021/01/28 07:34:15;;;;;;;15.27;8.33;;;0.20;84.80;;;;;;4975362;28;20571;-83
2021/01/28 07:36:49;;;;;;;15.00;8.23;;;0.30;84.40;;;;;;4984546;28;20210;-82
2021/01/28 07:39:38;;;;;;;10.77;7.50;;;0.30;83.90;;;;;;4987277;28;20716;-81
2021/01/28 07:42:25;;;;;;;12.67;8.03;;;0.40;83.70;;;;;;4988559;28;20481;-80
2021/01/28 07:44:54;;;;;;;13.90;7.70;;;0.40;83.40;;;;;;4973910;28;20229;-82
2021/01/28 07:47:56;;;;;;;12.20;8.10;;;0.50;83.20;;;;;;4977437;28;20220;-80
2021/01/28 07:50:31;;;;;;;11.37;8.07;;;0.40;83.20;;;;;;4986221;28;20187;-83
2021/01/28 07:53:35;;;;;;;14.20;8.27;;;0.40;83.10;;;;;;4984400;28;20572;-80
2021/01/28 07:56:34;;;;;;;14.87;8.83;;;0.40;83.10;;;;;;4975400;28;20209;-82
2021/01/28 07:59:11;;;;;;;15.77;8.47;;;0.40;83.20;;;;;;4977291;28;20230;-81
2021/01/28 08:02:11;;;;;;;15.30;8.23;;;0.40;83.40;;;;;;4996626;28;20490;-81
2021/01/28 08:04:45;;;;;;;15.43;8.63;;;0.40;83.20;;;;;;4990527;28;20214;-81
2021/01/28 08:07:16;;;;;;;15.53;8.43;;;0.40;83.00;;;;;;4996486;28;20227;-80
2021/01/28 08:09:50;;;;;;;15.80;8.40;;;0.60;83.00;;;;;;4995817;28;20207;-81
2021/01/28 08:12:28;;;;;;;16.83;8.90;;;0.50;83.00;;;;;;4995689;28;20214;-80
2021/01/28 08:14:57;;;;;;;15.73;8.53;;;0.60;83.00;;;;;;4998624;28;20196;-81
2021/01/28 08:17:30;;;;;;;15.30;8.77;;;0.70;82.90;;;;;;4973614;28;20770;-80
2021/01/28 08:20:23;;;;;;;17.13;9.60;;;0.80;82.70;;;;;;4989815;28;20289;-81
2021/01/28 08:22:56;;;;;;;13.37;8.20;;;0.80;82.70;;;;;;4994726;28;20525;-81
2021/01/28 08:25:29;;;;;;;12.17;7.63;;;0.90;82.20;;;;;;4980793;28;20481;-81
2021/01/28 08:28:11;;;;;;;13.20;8.10;;;0.90;82.00;;;;;;4990486;28;20219;-80
2021/01/28 08:30:40;;;;;;;12.57;7.83;;;1.00;81.80;;;;;;4978345;28;20207;-79
2021/01/28 08:33:21;;;;;;;11.37;7.23;;;1.10;81.70;;;;;;4985547;28;20404;-83
2021/01/28 08:36:13;;;;;;;15.23;7.97;;;1.10;81.20;;;;;;4983303;28;20789;-83
2021/01/28 08:38:48;;;;;;;13.00;8.13;;;1.20;81.30;;;;;;4980572;28;20376;-82
2021/01/28 08:41:33;;;;;;;11.03;7.77;;;1.30;81.10;;;;;;4980402;28;20354;-80
2021/01/28 08:44:10;;;;;;;16.00;7.97;;;1.40;80.60;;;;;;4974057;28;20234;-82
2021/01/28 08:46:42;;;;;;;13.23;8.47;;;1.50;80.60;;;;;;4978322;28;20223;-80
2021/01/28 08:49:14;;;;;;;11.47;6.73;;;1.70;80.90;;;;;;4967384;28;20768;-77
2021/01/28 08:51:52;;;;;;;13.30;7.70;;;1.90;80.20;;;;;;4973486;28;20377;-80
2021/01/28 08:54:25;;;;;;;13.17;7.70;;;2.10;80.10;;;;;;4966520;28;20192;-77
2021/01/28 08:56:58;;;;;;;16.93;8.53;;;2.20;79.60;;;;;;4975001;28;20294;-77
2021/01/28 08:59:32;;;;;;;13.47;8.00;;;2.40;79.40;;;;;;4961705;28;20205;-80
2021/01/28 09:02:03;;;;;;;14.10;7.50;;;2.50;79.00;;;;;;4971860;28;20273;-77
2021/01/28 09:04:34;;;;;;;12.63;7.53;;;2.70;78.70;;;;;;4968270;28;20198;-77
2021/01/28 09:07:03;;;;;;;10.23;6.63;;;2.70;78.40;;;;;;4974423;28;20238;-78
2021/01/28 09:09:33;;;;;;;11.90;7.73;;;2.70;78.50;;;;;;4972999;28;20201;-79
2021/01/28 09:12:23;;;;;;;17.80;8.27;;;2.60;78.50;;;;;;4964102;28;20206;-77
2021/01/28 09:14:51;;;;;;;13.20;8.17;;;2.70;78.60;;;;;;4959029;28;20199;-78
2021/01/28 09:17:24;;;;;;;13.30;7.80;;;2.70;78.60;;;;;;4961282;28;20280;-78
2021/01/28 09:19:55;;;;;;;11.23;7.63;;;2.70;78.30;;;;;;4955831;28;20201;-80
2021/01/28 09:22:30;;;;;;;8.67;7.03;;;2.70;78.40;;;;;;4961942;28;20202;-80
2021/01/28 09:25:00;;;;;;;13.73;7.93;;;2.70;78.00;;;;;;4969827;28;20214;-79
2021/01/28 09:27:37;;;;;;;15.17;7.73;;;2.80;78.50;;;;;;4971987;28;20198;-77
2021/01/28 09:30:16;;;;;;;12.40;7.77;;;2.70;78.20;;;;;;4940958;28;20646;-77
2021/01/28 09:32:44;;;;;;;13.17;7.80;;;2.70;78.30;;;;;;4963855;28;20329;-78
2021/01/28 09:35:17;;;;;;;10.73;7.57;;;2.70;78.40;;;;;;4959488;28;20292;-77
2021/01/28 09:37:47;;;;;;;13.50;8.20;;;2.80;78.50;;;;;;4973021;28;20203;-78
2021/01/28 09:40:26;;;;;;;14.83;8.77;;;2.70;78.90;;;;;;4971554;28;20211;-77
2021/01/28 09:43:26;;;;;;;13.07;8.20;;;2.70;78.80;;;;;;4975912;28;20363;-79
2021/01/28 09:46:06;;;;;;;13.67;8.30;;;2.70;78.80;;;;;;4987372;28;20240;-78
2021/01/28 09:48:34;;;;;;;13.30;7.83;;;2.80;78.50;;;;;;4992220;28;20217;-76
2021/01/28 09:51:03;;;;;;;12.63;8.10;;;2.80;78.30;;;;;;4973812;28;20536;-79
2021/01/28 09:53:31;;;;;;;13.60;7.77;;;2.70;78.20;;;;;;4956986;28;20594;-77
2021/01/28 09:55:58;;;;;;;13.83;8.37;;;2.70;78.50;;;;;;4971353;28;20201;-78
2021/01/28 09:58:27;;;;;;;13.10;8.10;;;2.60;78.60;;;;;;4991025;28;20549;-77
2021/01/28 10:00:54;;;;;;;11.90;8.27;;;2.70;78.80;;;;;;4984566;28;20382;-78
2021/01/28 10:03:23;;;;;;;13.33;9.30;;;2.80;78.40;;;;;;4981186;28;20289;-78
2021/01/28 10:05:51;;;;;;;15.70;9.17;;;2.90;78.50;;;;;;4955745;28;20728;-77
2021/01/28 10:08:19;;;;;;;15.67;8.93;;;3.00;78.30;;;;;;4952094;28;20588;-76
2021/01/28 10:10:49;;;;;;;10.47;7.80;;;3.00;78.00;;;;;;4956719;28;20226;-75
2021/01/28 10:13:18;;;;;;;10.63;7.10;;;3.00;77.80;;;;;;4953536;28;20792;-75
2021/01/28 10:15:46;;;;;;;13.40;7.97;;;2.90;77.90;;;;;;4956284;28;20217;-74
2021/01/28 10:18:14;;;;;;;12.90;8.93;;;2.90;78.00;;;;;;4957132;28;20259;-76
2021/01/28 10:20:43;;;;;;;15.50;8.63;;;3.00;78.00;;;;;;4956369;28;20209;-76
2021/01/28 10:23:11;;;;;;;12.33;7.77;;;3.10;78.00;;;;;;4959491;28;20203;-76
2021/01/28 10:25:39;;;;;;;12.90;8.67;;;3.10;78.00;;;;;;4955536;28;20406;-74
2021/01/28 10:28:07;;;;;;;16.83;9.70;;;3.10;77.70;;;;;;4955678;28;20432;-77
2021/01/28 10:30:34;;;;;;;16.57;9.13;;;3.10;78.20;;;;;;4958871;28;20209;-78
2021/01/28 10:33:05;;;;;;;11.90;8.27;;;3.20;78.00;;;;;;4966654;28;20314;-78
2021/01/28 10:35:34;;;;;;;17.20;9.13;;;3.20;77.50;;;;;;4965085;28;21035;-78
2021/01/28 10:38:04;;;;;;;12.83;8.03;;;3.20;77.90;;;;;;4953217;28;20221;-78
2021/01/28 10:40:32;;;;;;;13.40;8.53;;;3.20;77.70;;;;;;4959382;28;20198;-78
2021/01/28 10:43:03;;;;;;;14.03;8.10;;;3.20;77.20;;;;;;4960721;28;20249;-77
2021/01/28 10:45:33;;;;;;;14.60;8.83;;;3.20;77.40;;;;;;4940909;28;20241;-76
2021/01/28 10:48:01;;;;;;;15.63;8.63;;;3.10;77.40;;;;;;4963623;28;20274;-78
2021/01/28 10:50:33;;;;;;;15.10;8.83;;;3.20;77.70;;;;;;4957750;28;20833;-78
2021/01/28 10:53:01;;;;;;;14.47;9.90;;;3.20;78.00;;;;;;4963711;28;20198;-79
2021/01/28 10:55:31;;;;;;;13.00;9.37;;;3.30;78.30;;;;;;4961975;28;20870;-76
2021/01/28 10:57:59;;;;;;;12.73;8.37;;;3.30;78.00;;;;;;4957081;28;20196;-79
2021/01/28 11:00:28;;;;;;;14.47;8.20;;;3.30;78.00;;;;;;4934448;28;20245;-78
2021/01/28 11:02:56;;;;;;;14.77;9.80;;;3.40;78.10;;;;;;4952747;28;20200;-79
2021/01/28 11:05:27;;;;;;;15.83;8.90;;;3.20;78.00;;;;;;4961648;28;20214;-78
2021/01/28 11:07:56;;;;;;;14.87;9.03;;;3.20;78.10;;;;;;4957001;28;20211;-76
2021/01/28 11:10:24;;;;;;;17.27;10.00;;;3.00;78.70;;;;;;4955078;28;20548;-83
2021/01/28 11:12:53;;;;;;;13.80;9.37;;;3.10;78.30;;;;;;4957544;28;20199;-75
2021/01/28 11:15:23;;;;;;;11.63;8.47;;;3.20;78.50;;;;;;4954762;28;20217;-75
2021/01/28 11:17:51;;;;;;;12.87;8.83;;;3.20;78.20;;;;;;4959733;28;20198;-75
2021/01/28 11:20:19;;;;;;;14.07;9.23;;;3.10;78.40;;;;;;4943520;28;20230;-76
2021/01/28 11:22:46;;;;;;;14.17;9.63;;;3.10;78.40;;;;;;4953687;28;20305;-76
2021/01/28 11:25:18;;;;;;;14.87;10.20;;;3.00;78.20;;;;;;4958827;28;20866;-77
2021/01/28 11:27:48;;;;;;;19.00;10.13;;;2.90;78.10;;;;;;4957875;28;20543;-77
2021/01/28 11:30:18;;;;;;;15.47;9.70;;;2.90;78.30;;;;;;4958893;28;20276;-74
2021/01/28 11:32:46;;;;;;;14.17;10.03;;;2.90;78.40;;;;;;4958199;28;20274;-77
2021/01/28 11:35:14;;;;;;;12.60;9.00;;;3.00;78.40;;;;;;4964445;28;20816;-76
2021/01/28 11:37:45;;;;;;;17.87;10.63;;;2.90;78.50;;;;;;4957898;28;20994;-74
2021/01/28 11:40:16;;;;;;;17.07;9.80;;;2.90;78.10;;;;;;4964408;28;20227;-76
2021/01/28 11:42:44;;;;;;;15.10;9.57;;;3.00;78.40;;;;;;4959147;28;20204;-77
2021/01/28 11:45:13;;;;;;;20.20;10.30;;;3.10;78.30;;;;;;4961201;28;20245;-77
2021/01/28 11:47:41;;;;;;;14.10;9.80;;;3.00;78.30;;;;;;4962146;28;20204;-76
2021/01/28 11:50:11;;;;;;;16.23;9.93;;;2.90;77.90;;;;;;4962097;28;20261;-79
2021/01/28 11:52:41;;;;;;;17.20;10.87;;;2.90;78.60;;;;;;4966931;28;20221;-77
2021/01/28 11:55:14;;;;;;;17.17;11.07;;;2.90;78.80;;;;;;4971038;28;20217;-78
2021/01/28 11:57:42;;;;;;;18.33;11.33;;;3.00;78.60;;;;;;4981660;28;20285;-75
2021/01/28 12:00:13;;;;;;;19.27;11.60;;;3.00;78.40;;;;;;4982558;28;20301;-77
2021/01/28 12:02:40;;;;;;;16.10;9.90;;;2.90;78.40;;;;;;4965557;28;21041;-74
2021/01/28 12:05:11;;;;;;;14.83;10.70;;;3.00;78.50;;;;;;4960253;28;20216;-76
2021/01/28 12:07:39;;;;;;;14.50;10.47;;;3.00;78.60;;;;;;4953909;28;20231;-74
2021/01/28 12:10:10;;;;;;;16.27;11.53;;;3.00;78.50;;;;;;4951721;28;20991;-75
2021/01/28 12:12:48;;;;;;;19.27;10.70;;;3.00;78.70;;;;;;4959223;28;20358;-75
2021/01/28 12:15:17;;;;;;;18.77;10.57;;;3.10;78.80;;;;;;4958810;28;20214;-77
2021/01/28 12:17:46;;;;;;;16.40;11.23;;;3.10;78.40;;;;;;4957821;28;20318;-76
2021/01/28 12:20:16;;;;;;;22.33;10.93;;;3.10;78.40;;;;;;4951987;28;21062;-77
2021/01/28 12:22:43;;;;;;;16.73;10.87;;;3.20;78.70;;;;;;4961264;28;20219;-79
2021/01/28 12:25:12;;;;;;;17.00;9.93;;;3.10;78.60;;;;;;4960056;28;20210;-80
2021/01/28 12:27:40;;;;;;;16.13;11.13;;;3.10;78.90;;;;;;4962846;28;20225;-76
2021/01/28 12:30:11;;;;;;;20.67;11.23;;;3.10;78.70;;;;;;4959243;28;20431;-79
2021/01/28 12:32:39;;;;;;;17.40;11.37;;;3.00;78.90;;;;;;4964344;28;20210;-78
2021/01/28 12:35:08;;;;;;;20.80;11.80;;;3.00;79.30;;;;;;4967150;28;21058;-78
2021/01/28 12:37:39;;;;;;;16.87;11.20;;;2.90;79.30;;;;;;4969979;28;20205;-77
2021/01/28 12:40:08;;;;;;;17.83;10.93;;;2.90;79.60;;;;;;4965180;28;20204;-78
2021/01/28 12:42:37;;;;;;;16.07;11.53;;;2.80;80.00;;;;;;4968497;28;21025;-76
2021/01/28 12:45:06;;;;;;;18.83;12.13;;;2.70;80.60;;;;;;4943188;28;20218;-78
2021/01/28 12:47:35;;;;;;;16.10;11.17;;;2.80;80.70;;;;;;4972219;28;20224;-78
2021/01/28 12:50:05;;;;;;;19.53;13.00;;;2.80;80.90;;;;;;4939915;28;20651;-79
2021/01/28 12:52:32;;;;;;;20.13;12.33;;;2.70;81.10;;;;;;4966173;28;20579;-78
2021/01/28 12:55:00;;;;;;;17.80;11.83;;;2.60;81.30;;;;;;4968100;28;20304;-79
2021/01/28 12:57:27;;;;;;;21.23;12.53;;;2.70;81.30;;;;;;4960333;28;20440;-78
2021/01/28 12:59:56;;;;;;;18.90;12.73;;;2.70;81.50;;;;;;4953193;28;20211;-79
2021/01/28 13:02:23;;;;;;;19.00;12.30;;;2.60;81.30;;;;;;4961423;28;20757;-78
2021/01/28 13:04:52;;;;;;;19.40;12.80;;;2.50;82.00;;;;;;4959733;28;20604;-76
2021/01/28 13:07:19;;;;;;;19.50;12.07;;;2.40;81.70;;;;;;4956337;28;20341;-77